Time;durP1;ratioP1;P1;durP2;ratioP2;P2;SDS_P1;SDS_P2;PMS_P1;PMS_P2;Temp;Humidity;BMP_temperature;BMP_pressure;BME280_temperature;BME280_humidity;BME280_pressure;Samples;Min_cycle;Max_cycle;Signal;HPM_P1;HPM_P2
2022/05/22 00:00:57;;;;;;;4.60;1.73;;;;;;;13.15;72.49;100458.63;5120891;28;20027;-80
2022/05/22 00:03:22;;;;;;;6.57;2.10;;;;;;;13.09;72.79;100454.06;5121600;28;20261;-80
2022/05/22 00:05:47;;;;;;;4.88;2.00;;;;;;;13.08;72.70;100449.69;5120926;28;20470;-80
2022/05/22 00:08:13;;;;;;;5.15;1.85;;;;;;;13.28;72.81;100447.69;5121744;28;20434;-80
2022/05/22 00:10:39;;;;;;;4.10;2.08;;;;;;;13.32;72.42;100457.03;5102526;28;20040;-79
2022/05/22 00:13:05;;;;;;;6.03;2.58;;;;;;;13.26;72.33;100457.06;5120456;28;20036;-80
2022/05/22 00:15:31;;;;;;;5.90;1.80;;;;;;;13.07;73.05;100454.31;5102418;28;20393;-80
2022/05/22 00:17:56;;;;;;;5.00;1.90;;;;;;;13.00;73.42;100449.97;5121009;28;20027;-80
2022/05/22 00:20:22;;;;;;;;;;;;;;;13.05;73.58;100459.09;5121683;28;20035;-80
2022/05/22 00:22:47;;;;;;;5.90;2.35;;;;;;;13.07;73.52;100450.78;5103207;28;19974;-80
2022/05/22 00:25:13;;;;;;;5.65;1.80;;;;;;;13.13;73.55;100447.16;5102904;28;20031;-80
2022/05/22 00:27:40;;;;;;;9.20;2.05;;;;;;;13.10;73.11;100447.59;5119992;28;20039;-80
2022/05/22 00:30:07;;;;;;;6.35;1.92;;;;;;;13.05;73.72;100448.28;5118828;28;20023;-80
2022/05/22 00:32:33;;;;;;;6.07;1.75;;;;;;;13.17;73.14;100443.00;5119050;28;20114;-79
2022/05/22 00:34:58;;;;;;;3.95;1.60;;;;;;;13.08;73.39;100444.28;5118456;28;20067;-80
2022/05/22 00:37:24;;;;;;;6.57;2.00;;;;;;;12.95;74.02;100437.13;5100432;28;20027;-80
2022/05/22 00:39:49;;;;;;;;;;;;;;;12.98;74.09;100443.97;5118174;28;20354;-80
2022/05/22 00:42:18;;;;;;;4.75;1.85;;;;;;;13.14;74.44;100435.28;5116583;28;19914;-79
2022/05/22 00:44:45;;;;;;;10.77;1.90;;;;;;;13.19;73.72;100438.19;5098546;28;20043;-80
2022/05/22 00:47:10;;;;;;;6.55;2.03;;;;;;;13.11;73.79;100431.16;5117073;28;20028;-80
2022/05/22 00:49:41;;;;;;;8.35;2.17;;;;;;;13.08;74.26;100426.19;5116882;28;20035;-79
2022/05/22 00:52:13;;;;;;;5.22;2.13;;;;;;;13.23;74.21;100425.91;5098968;28;20076;-80
2022/05/22 00:54:47;;;;;;;9.20;2.05;;;;;;;13.02;74.01;100428.97;5120516;28;20023;-80
2022/05/22 00:57:38;;;;;;;5.03;2.08;;;;;;;12.84;75.02;100425.13;5122774;28;20035;-80
2022/05/22 01:00:11;;;;;;;4.38;1.65;;;;;;;12.88;75.52;100438.22;5117208;28;20116;-80
2022/05/22 01:05:21;;;;;;;7.13;2.67;;;;;;;12.91;74.56;100426.94;5116444;28;20100;-80
2022/05/22 01:07:46;;;;;;;5.60;2.15;;;;;;;12.86;74.99;100424.94;5098028;28;20062;-79
2022/05/22 01:10:12;;;;;;;;;;;;;;;12.81;75.15;100417.47;5116979;28;20422;-79
2022/05/22 01:12:41;;;;;;;4.70;2.00;;;;;;;12.76;75.97;100414.56;5115904;28;19914;-79
2022/05/22 01:15:07;;;;;;;5.25;1.88;;;;;;;12.59;76.40;100420.72;5115996;28;20035;-79
2022/05/22 01:17:42;;;;;;;5.65;1.65;;;;;;;12.53;76.56;100414.34;5115989;28;20047;-79
2022/05/22 01:20:08;;;;;;;3.92;1.90;;;;;;;12.73;76.27;100411.47;5098003;28;20031;-79
2022/05/22 01:22:33;;;;;;;3.85;2.13;;;;;;;12.55;76.59;100412.22;5097726;28;20580;-79
2022/05/22 01:24:59;;;;;;;4.15;2.08;;;;;;;12.52;77.02;100416.22;5115476;28;20096;-78
2022/05/22 01:27:26;;;;;;;5.10;2.10;;;;;;;12.43;77.54;100406.69;5115913;28;20483;-78
2022/05/22 01:30:05;;;;;;;8.48;2.22;;;;;;;12.39;77.49;100402.75;5115979;28;20036;-79
2022/05/22 01:32:33;;;;;;;6.57;2.55;;;;;;;12.26;78.16;100407.41;5117108;28;20032;-79
2022/05/22 01:34:59;;;;;;;5.70;2.33;;;;;;;12.33;77.92;100409.06;5117913;28;20027;-79
2022/05/22 01:37:24;;;;;;;5.55;2.03;;;;;;;12.24;78.57;100401.41;5117864;28;20108;-80
2022/05/22 01:39:51;;;;;;;4.77;2.20;;;;;;;12.42;78.01;100407.75;5098805;28;20134;-79
2022/05/22 01:42:16;;;;;;;4.68;2.13;;;;;;;12.45;78.56;100403.78;5117144;28;20777;-80
2022/05/22 01:44:41;;;;;;;4.90;2.13;;;;;;;12.38;78.33;100409.22;5117124;28;20031;-79
2022/05/22 01:47:07;;;;;;;6.10;2.27;;;;;;;12.28;78.80;100410.75;5118212;28;20560;-79
2022/05/22 01:49:32;;;;;;;8.23;2.40;;;;;;;12.25;79.54;100412.00;5117235;28;20023;-79
2022/05/22 01:51:57;;;;;;;6.90;3.07;;;;;;;12.17;79.56;100414.97;5116717;28;20249;-79
2022/05/22 01:54:22;;;;;;;7.60;2.57;;;;;;;12.34;79.51;100413.41;5096972;28;20019;-78
2022/05/22 01:56:48;;;;;;;7.83;3.47;;;;;;;12.12;80.37;100412.91;5115868;28;20036;-78
2022/05/22 01:59:13;;;;;;;18.07;3.63;;;;;;;12.08;80.41;100414.38;5097587;28;20822;-79
2022/05/22 02:01:38;;;;;;;6.70;2.43;;;;;;;11.99;80.63;100409.44;5097467;28;20265;-78
2022/05/22 02:04:07;;;;;;;5.85;3.38;;;;;;;11.92;81.34;100414.03;5115498;28;20350;-78
2022/05/22 02:06:32;;;;;;;7.30;2.55;;;;;;;11.84;81.34;100401.59;5114796;28;20031;-78
2022/05/22 02:08:57;;;;;;;6.22;2.72;;;;;;;11.86;81.55;100399.50;5115178;28;20068;-78
2022/05/22 02:11:23;;;;;;;7.93;2.73;;;;;;;11.81;82.05;100388.53;5115053;28;20088;-78
2022/05/22 02:13:48;;;;;;;7.53;3.22;;;;;;;11.78;82.07;100394.34;5096573;28;20434;-78
2022/05/22 02:16:15;;;;;;;6.68;2.95;;;;;;;12.06;80.85;100394.03;5114378;28;20031;-78
2022/05/22 02:18:41;;;;;;;9.13;2.70;;;;;;;12.23;79.92;100400.56;5114725;28;20050;-79
2022/05/22 02:21:07;;;;;;;5.20;2.83;;;;;;;12.20;79.80;100390.19;5114923;28;20027;-79
2022/05/22 02:23:34;;;;;;;4.70;2.63;;;;;;;12.25;79.69;100393.09;5114693;28;20363;-80
2022/05/22 02:26:00;;;;;;;4.85;2.47;;;;;;;12.12;79.57;100382.38;5096363;28;20462;-79
2022/05/22 02:28:27;;;;;;;6.43;3.05;;;;;;;11.83;81.40;100373.75;5114360;28;20458;-79
2022/05/22 02:30:56;;;;;;;8.85;2.97;;;;;;;11.85;82.59;100365.44;5096484;28;20031;-80
2022/05/22 02:33:22;;;;;;;6.30;2.45;;;;;;;11.81;82.48;100354.28;5114865;28;20485;-79
2022/05/22 02:35:47;;;;;;;7.22;2.78;;;;;;;11.80;82.92;100349.09;5121194;28;20045;-78
2022/05/22 02:38:14;;;;;;;11.00;3.38;;;;;;;11.58;83.29;100342.28;5126714;28;20031;-79
2022/05/22 02:40:40;;;;;;;7.53;3.00;;;;;;;11.56;84.32;100345.19;5128323;28;20395;-79
2022/05/22 02:43:12;;;;;;;8.43;2.60;;;;;;;11.50;84.31;100335.25;5109719;28;20394;-80
2022/05/22 02:45:39;;;;;;;4.32;2.30;;;;;;;11.50;84.85;100337.94;5119177;28;20046;-80
2022/05/22 02:48:05;;;;;;;6.57;3.13;;;;;;;11.46;84.70;100331.34;5118021;28;20084;-80
2022/05/22 02:50:31;;;;;;;;;;;;;;;11.40;84.49;100332.19;5117388;28;20454;-80
2022/05/22 02:52:56;;;;;;;8.48;2.80;;;;;;;11.35;84.95;100335.50;5115721;28;19908;-80
2022/05/22 02:55:22;;;;;;;7.93;2.38;;;;;;;11.22;85.44;100335.53;5096262;28;20035;-80
2022/05/22 02:57:47;;;;;;;;;;;;;;;11.32;84.86;100345.88;5115330;28;20067;-80
2022/05/22 03:00:20;;;;;;;8.65;2.97;;;;;;;11.27;85.15;100349.22;5114775;28;19943;-80
2022/05/22 03:02:45;;;;;;;6.40;3.17;;;;;;;11.11;86.09;100345.09;5115153;28;20050;-80
2022/05/22 03:05:11;;;;;;;8.80;3.27;;;;;;;11.12;85.95;100343.22;5114302;28;20110;-80
2022/05/22 03:07:37;;;;;;;11.80;3.63;;;;;;;11.19;85.79;100346.75;5114327;28;20060;-80
2022/05/22 03:10:06;;;;;;;6.72;3.33;;;;;;;11.19;85.50;100335.13;5114289;28;20034;-80
2022/05/22 03:12:31;;;;;;;7.80;2.97;;;;;;;11.24;85.23;100338.88;5114834;28;20024;-79
2022/05/22 03:14:58;;;;;;;6.70;3.13;;;;;;;11.17;85.72;100329.13;5114142;28;20526;-79
2022/05/22 03:17:24;;;;;;;7.22;3.63;;;;;;;11.12;85.54;100327.03;5117812;28;20345;-80
2022/05/22 03:19:50;;;;;;;8.32;3.80;;;;;;;11.06;85.94;100334.13;5119399;28;20063;-80
2022/05/22 03:22:17;;;;;;;6.93;2.55;;;;;;;11.19;85.46;100332.44;5123373;28;20023;-81
2022/05/22 03:24:43;;;;;;;8.05;3.00;;;;;;;11.30;85.20;100329.91;5124516;28;20484;-82
2022/05/22 03:27:11;;;;;;;10.05;3.67;;;;;;;11.35;84.58;100332.81;5123418;28;20027;-81
2022/05/22 03:29:38;;;;;;;8.25;2.95;;;;;;;11.34;84.20;100333.84;5121640;28;20036;-81
2022/05/22 03:32:04;;;;;;;7.05;2.88;;;;;;;11.30;84.07;100323.69;5120186;28;20518;-81
2022/05/22 03:34:29;;;;;;;7.15;2.60;;;;;;;11.31;84.06;100320.78;5121102;28;20047;-81
2022/05/22 03:36:55;;;;;;;6.25;2.67;;;;;;;11.35;84.44;100319.31;5121662;28;20032;-81
2022/05/22 03:39:21;;;;;;;5.85;2.72;;;;;;;11.49;83.26;100317.41;5120865;28;20376;-81
2022/05/22 03:41:47;;;;;;;7.90;3.53;;;;;;;11.45;83.52;100317.00;5120417;28;20042;-81
2022/05/22 03:44:12;;;;;;;9.35;3.20;;;;;;;11.46;83.34;100320.53;5102514;28;20035;-81
2022/05/22 03:46:38;;;;;;;9.43;3.17;;;;;;;11.43;83.57;100313.69;5120500;28;20107;-81
2022/05/22 03:49:03;;;;;;;6.73;2.53;;;;;;;11.45;83.40;100316.19;5103115;28;20036;-81
2022/05/22 03:51:28;;;;;;;4.93;2.55;;;;;;;11.62;83.10;100308.44;5121201;28;20027;-81
2022/05/22 03:53:54;;;;;;;7.68;3.45;;;;;;;11.67;82.19;100305.91;5120988;28;20396;-81
2022/05/22 03:56:20;;;;;;;6.57;3.72;;;;;;;11.59;82.94;100298.91;5120991;28;20044;-80
2022/05/22 03:58:47;;;;;;;6.63;2.45;;;;;;;11.52;82.71;100305.34;5120985;28;20111;-80
2022/05/22 04:01:12;;;;;;;4.38;2.38;;;;;;;11.48;82.92;100297.69;5120512;28;20028;-80
2022/05/22 04:03:38;;;;;;;5.97;2.72;;;;;;;11.47;83.12;100298.72;5121350;28;20039;-82
2022/05/22 04:06:07;;;;;;;8.70;3.13;;;;;;;11.60;83.03;100299.72;5121495;28;20085;-81
2022/05/22 04:08:32;;;;;;;4.85;2.70;;;;;;;11.75;82.34;100305.66;5121452;28;20114;-81
2022/05/22 04:11:06;;;;;;;6.63;2.67;;;;;;;11.61;82.88;100299.50;5121566;28;20055;-81
2022/05/22 04:13:31;;;;;;;7.82;2.70;;;;;;;11.56;82.75;100291.22;5121293;28;20381;-82
2022/05/22 04:15:56;;;;;;;5.97;2.57;;;;;;;11.73;82.93;100294.25;5121438;28;20110;-81
2022/05/22 04:18:21;;;;;;;7.53;2.57;;;;;;;11.66;82.71;100298.84;5121686;28;20442;-81
2022/05/22 04:20:47;;;;;;;6.40;2.70;;;;;;;11.52;82.56;100300.78;5121694;28;20254;-81
2022/05/22 04:25:58;;;;;;;7.75;2.97;;;;;;;11.55;82.93;100286.88;5121815;28;20135;-82
2022/05/22 04:28:25;;;;;;;7.28;3.10;;;;;;;11.64;83.12;100299.09;5122382;28;20039;-82
2022/05/22 04:30:51;;;;;;;6.60;2.55;;;;;;;11.58;82.93;100294.53;5126877;28;20063;-81
2022/05/22 04:33:17;;;;;;;5.93;2.45;;;;;;;11.65;82.63;100299.88;5123682;28;20044;-82
2022/05/22 04:35:43;;;;;;;5.18;2.60;;;;;;;11.65;82.53;100311.50;5123004;28;20442;-81
2022/05/22 04:38:09;;;;;;;;;;;;;;;11.61;82.55;100314.88;5127759;28;20098;-81
2022/05/22 04:40:34;;;;;;;4.55;2.35;;;;;;;11.61;82.31;100309.47;5122381;28;20380;-81
2022/05/22 04:43:00;;;;;;;6.27;2.40;;;;;;;11.76;81.86;100308.19;5120743;28;20030;-81
2022/05/22 04:45:26;;;;;;;7.13;3.25;;;;;;;11.66;82.00;100304.25;5120564;28;20277;-81
2022/05/22 04:47:51;;;;;;;7.63;2.60;;;;;;;11.63;82.78;100307.41;5120030;28;20135;-81
2022/05/22 04:50:17;;;;;;;6.20;3.03;;;;;;;11.83;82.74;100308.13;5120522;28;20273;-81
2022/05/22 04:52:42;;;;;;;6.63;3.20;;;;;;;11.77;82.24;100309.03;5119861;28;20719;-80
2022/05/22 04:55:08;;;;;;;8.47;3.27;;;;;;;11.75;82.26;100305.66;5118366;28;20085;-82
2022/05/22 04:57:34;;;;;;;;;;;;;;;11.70;82.40;100303.59;5121034;28;20023;-81
2022/05/22 05:00:00;;;;;;;6.68;2.70;;;;;;;11.91;81.91;100313.28;5121618;28;19969;-82
2022/05/22 05:02:25;;;;;;;5.95;2.33;;;;;;;12.02;81.43;100299.09;5126957;28;20087;-82
2022/05/22 05:05:00;;;;;;;5.55;2.47;;;;;;;12.19;80.84;100312.91;5128906;28;20074;-83
2022/05/22 05:07:25;;;;;;;4.95;2.47;;;;;;;12.18;80.71;100303.97;5127746;28;20019;-82
2022/05/22 05:09:50;;;;;;;10.03;2.77;;;;;;;12.34;80.62;100299.94;5130557;28;20034;-80
2022/05/22 05:12:17;;;;;;;5.75;2.40;;;;;;;12.24;80.10;100299.56;5130277;28;20373;-81
2022/05/22 05:14:43;;;;;;;7.65;3.15;;;;;;;12.37;79.84;100304.06;5131128;28;20032;-81
2022/05/22 05:17:10;;;;;;;6.63;2.60;;;;;;;12.39;80.48;100291.97;5130526;28;20042;-80
2022/05/22 05:19:36;;;;;;;6.50;2.85;;;;;;;12.48;79.20;100306.06;5129433;28;20118;-83
2022/05/22 05:22:01;;;;;;;5.38;2.83;;;;;;;12.22;80.61;100298.13;5130125;28;20053;-82
2022/05/22 05:24:27;;;;;;;6.13;2.50;;;;;;;12.42;80.59;100296.13;5130653;28;20099;-83
2022/05/22 05:26:54;;;;;;;10.23;2.97;;;;;;;12.31;80.50;100299.53;5129419;28;20053;-83
2022/05/22 05:29:20;;;;;;;7.43;2.38;;;;;;;12.35;81.13;100300.78;5130346;28;20253;-82
2022/05/22 05:31:45;;;;;;;4.95;2.90;;;;;;;12.57;80.78;100296.63;5111203;28;20381;-82
2022/05/22 05:34:11;;;;;;;8.15;3.75;;;;;;;12.51;80.61;100300.22;5127971;28;20103;-82
2022/05/22 05:36:36;;;;;;;7.50;2.72;;;;;;;12.52;80.07;100293.78;5126901;28;20066;-82
2022/05/22 05:39:02;;;;;;;5.25;3.15;;;;;;;12.59;79.83;100297.22;5129971;28;20032;-82
2022/05/22 05:41:27;;;;;;;5.65;2.08;;;;;;;12.67;79.80;100301.53;5130027;28;20063;-83
2022/05/22 05:43:53;;;;;;;7.17;2.73;;;;;;;12.85;78.96;100301.56;5130814;28;20039;-83
2022/05/22 05:46:18;;;;;;;;;;;;;;;12.71;78.69;100314.41;5129538;28;20043;-83
2022/05/22 05:48:43;;;;;;;8.67;2.63;;;;;;;12.95;78.10;100306.47;5130061;28;19908;-81
2022/05/22 05:51:12;;;;;;;5.73;3.07;;;;;;;13.01;77.66;100300.16;5125805;28;20250;-81
2022/05/22 05:53:37;;;;;;;6.25;2.83;;;;;;;13.01;77.93;100294.75;5125275;28;20050;-81
2022/05/22 05:56:04;;;;;;;5.63;3.00;;;;;;;12.97;77.50;100293.53;5122258;28;20032;-81
2022/05/22 05:58:29;;;;;;;6.13;2.70;;;;;;;12.95;77.57;100293.78;5122246;28;20059;-81
2022/05/22 06:00:55;;;;;;;5.97;2.83;;;;;;;13.08;77.40;100295.50;5124304;28;20428;-81
2022/05/22 06:03:20;;;;;;;;;;;;;;;12.98;77.13;100295.22;5122823;28;20466;-81
2022/05/22 06:05:45;;;;;;;6.77;3.30;;;;;;;12.93;77.27;100286.94;5123755;28;19923;-81
2022/05/22 06:08:10;;;;;;;9.00;3.17;;;;;;;13.04;77.88;100287.03;5105210;28;20425;-81
2022/05/22 06:10:37;;;;;;;10.77;3.35;;;;;;;13.16;77.04;100289.84;5124209;28;20114;-81
2022/05/22 06:13:03;;;;;;;8.30;2.80;;;;;;;13.21;76.34;100284.59;5126956;28;20047;-81
2022/05/22 06:15:28;;;;;;;5.43;2.73;;;;;;;13.37;76.35;100286.69;5127316;28;20155;-81
2022/05/22 06:17:56;;;;;;;;;;;;;;;13.60;76.02;100283.28;5127972;28;20023;-82
2022/05/22 06:20:21;;;;;;;;;;;;;;;13.81;75.44;100290.91;5127528;28;19929;-77
2022/05/22 06:22:46;;;;;;;8.20;3.13;;;;;;;14.02;74.24;100283.31;5114441;28;19915;-79
2022/05/22 06:25:14;;;;;;;5.63;2.60;;;;;;;14.63;72.38;100288.44;5114919;28;20031;-79
2022/05/22 06:27:40;;;;;;;6.05;2.60;;;;;;;15.00;69.92;100297.19;5114135;28;20040;-78
2022/05/22 06:30:06;;;;;;;4.53;2.10;;;;;;;15.14;69.82;100295.03;5117762;28;20049;-77
2022/05/22 06:32:32;;;;;;;6.70;2.45;;;;;;;15.45;68.87;100297.34;5115107;28;20032;-75
2022/05/22 06:34:58;;;;;;;;;;;;;;;15.75;67.92;100288.19;5116484;28;20034;-76
2022/05/22 06:37:24;;;;;;;5.07;2.53;;;;;;;16.12;66.05;100292.13;5115913;28;19919;-76
2022/05/22 06:39:49;;;;;;;;;;;;;;;16.31;64.98;100293.56;5116158;28;20040;-76
2022/05/22 06:42:17;;;;;;;8.03;2.60;;;;;;;16.81;64.75;100295.53;5116145;28;19911;-77
2022/05/22 06:44:42;;;;;;;6.00;2.50;;;;;;;16.75;63.97;100291.06;5115437;28;20062;-76
2022/05/22 06:47:08;;;;;;;6.00;2.58;;;;;;;16.23;65.65;100287.72;5116322;28;20039;-76
2022/05/22 06:49:33;;;;;;;;;;;;;;;16.37;64.33;100294.50;5116338;28;20096;-77
2022/05/22 06:51:59;;;;;;;4.53;2.80;;;;;;;17.50;62.00;100295.94;5118742;28;19916;-78
2022/05/22 06:54:24;;;;;;;;;;;;;;;16.70;63.89;100293.69;5118430;28;20031;-76
2022/05/22 06:56:50;;;;;;;6.95;2.60;;;;;;;16.11;65.59;100303.28;5117793;28;20361;-77
2022/05/22 06:59:16;;;;;;;5.05;2.10;;;;;;;16.24;65.42;100295.63;5117468;28;20028;-78
2022/05/22 07:01:42;;;;;;;5.93;2.20;;;;;;;16.74;65.25;100304.91;5117493;28;20110;-77
2022/05/22 07:04:07;;;;;;;;;;;;;;;16.99;64.13;100291.72;5118048;28;20032;-78
2022/05/22 07:06:32;;;;;;;4.85;2.28;;;;;;;16.69;64.87;100307.56;5117268;28;19912;-78
2022/05/22 07:08:58;;;;;;;7.78;2.75;;;;;;;16.24;64.90;100305.69;5117313;28;20089;-78
2022/05/22 07:11:38;;;;;;;4.95;2.50;;;;;;;16.24;65.77;100311.97;5116956;28;20093;-77
2022/05/22 07:14:08;;;;;;;4.72;2.40;;;;;;;16.38;64.63;100304.31;5117240;28;20453;-77
2022/05/22 07:16:34;;;;;;;6.85;3.00;;;;;;;16.29;64.88;100303.06;5117002;28;20429;-78
2022/05/22 07:19:00;;;;;;;6.13;2.85;;;;;;;15.91;65.45;100301.00;5117172;28;20032;-77
2022/05/22 07:21:25;;;;;;;7.00;2.53;;;;;;;15.63;66.38;100305.34;5118044;28;20101;-77
2022/05/22 07:23:51;;;;;;;;;;;;;;;15.94;66.33;100303.25;5100279;28;20433;-78
2022/05/22 07:26:19;;;;;;;9.27;2.92;;;;;;;16.16;65.09;100301.47;5120272;28;19914;-76
2022/05/22 07:28:45;;;;;;;7.35;2.60;;;;;;;16.08;65.77;100301.88;5119972;28;20039;-76
2022/05/22 07:31:17;;;;;;;;;;;;;;;16.04;64.95;100297.16;5118281;28;20042;-76
2022/05/22 07:33:42;;;;;;;7.55;2.50;;;;;;;15.98;65.29;100297.06;5116174;28;20322;-77
2022/05/22 07:36:08;;;;;;;;;;;;;;;15.91;65.88;100296.41;5116898;28;20024;-77
2022/05/22 07:38:33;;;;;;;5.57;2.37;;;;;;;15.93;65.44;100294.28;5098284;28;19907;-75
2022/05/22 07:40:58;;;;;;;;;;;;;;;16.03;65.55;100288.19;5117194;28;20043;-76
2022/05/22 07:43:23;;;;;;;5.83;2.53;;;;;;;16.08;64.68;100291.00;5116416;28;20328;-76
2022/05/22 07:45:49;;;;;;;;;;;;;;;15.81;64.90;100292.66;5116935;28;20023;-76
2022/05/22 07:48:15;;;;;;;6.53;2.78;;;;;;;15.94;64.95;100292.38;5116089;28;19914;-76
2022/05/22 07:50:41;;;;;;;6.78;2.22;;;;;;;16.11;63.60;100289.69;5116083;28;20038;-76
2022/05/22 07:53:06;;;;;;;;;;;;;;;16.35;63.13;100285.75;5116810;28;20035;-76
2022/05/22 07:55:32;;;;;;;5.70;2.50;;;;;;;16.37;62.75;100291.78;5116140;28;19955;-77
2022/05/22 07:57:57;;;;;;;;;;;;;;;16.61;62.38;100290.56;5116811;28;20081;-77
2022/05/22 08:00:22;;;;;;;4.13;2.00;;;;;;;16.70;62.40;100279.28;5116404;28;19915;-76
2022/05/22 08:02:48;;;;;;;;;;;;;;;16.78;61.38;100278.88;5097239;28;20432;-77
2022/05/22 08:05:17;;;;;;;7.38;2.17;;;;;;;16.81;62.12;100283.81;5115802;28;19908;-77
2022/05/22 08:07:43;;;;;;;4.38;2.28;;;;;;;16.94;60.40;100275.28;5098175;28;20078;-77
2022/05/22 08:10:09;;;;;;;;;;;;;;;16.82;60.19;100280.03;5116500;28;20500;-77
2022/05/22 08:12:38;;;;;;;5.88;1.90;;;;;;;16.89;59.47;100281.47;5098310;28;20281;-78
2022/05/22 08:15:05;;;;;;;5.45;1.58;;;;;;;17.07;57.96;100272.22;5116176;28;20028;-77
2022/05/22 08:17:35;;;;;;;7.32;1.90;;;;;;;17.20;58.74;100273.75;5115944;28;20431;-78
2022/05/22 08:20:06;;;;;;;5.68;2.38;;;;;;;17.26;57.51;100270.84;5116224;28;20062;-77
2022/05/22 08:22:31;;;;;;;4.35;1.65;;;;;;;17.42;57.34;100269.13;5116062;28;20114;-77
2022/05/22 08:24:56;;;;;;;5.75;1.75;;;;;;;17.43;56.62;100265.34;5116417;28;20066;-77
2022/05/22 08:27:22;;;;;;;;;;;;;;;17.28;54.06;100262.41;5116645;28;20034;-78
2022/05/22 08:29:47;;;;;;;5.63;1.50;;;;;;;17.00;56.00;100261.53;5115821;28;19938;-77
2022/05/22 08:32:12;;;;;;;;;;;;;;;17.25;56.04;100261.03;5115993;28;20028;-78
2022/05/22 08:34:38;;;;;;;6.22;2.10;;;;;;;17.27;56.25;100247.16;5115921;28;19916;-76
2022/05/22 08:37:03;;;;;;;;;;;;;;;17.30;56.96;100233.03;5116063;28;20092;-77
2022/05/22 08:39:29;;;;;;;6.18;1.88;;;;;;;17.48;56.37;100224.53;5115805;28;19912;-77
2022/05/22 08:41:57;;;;;;;;;;;;;;;17.20;56.35;100227.44;5116317;28;20027;-76
2022/05/22 08:44:29;;;;;;;5.25;2.25;;;;;;;17.60;56.23;100227.94;5115950;28;19918;-76
2022/05/22 08:46:54;;;;;;;5.78;2.60;;;;;;;17.48;55.27;100227.25;5097934;28;20338;-76
2022/05/22 08:49:30;;;;;;;3.73;1.90;;;;;;;17.66;55.42;100239.75;5115639;28;20034;-77
2022/05/22 08:52:31;;;;;;;4.15;2.05;;;;;;;17.66;54.83;100232.41;5115556;28;20482;-77
2022/05/22 08:55:04;;;;;;;5.88;2.63;;;;;;;17.66;54.70;100229.69;5076674;28;20088;-77
2022/05/22 09:00:28;;;;;;;4.80;2.00;;;;;;;17.66;54.28;100226.97;5115276;28;20095;-77
2022/05/22 09:03:05;;;;;;;7.53;2.35;;;;;;;17.83;55.56;100223.31;5115566;28;20032;-79
2022/05/22 09:05:33;;;;;;;6.47;2.60;;;;;;;17.79;53.69;100216.72;5115030;28;20138;-78
2022/05/22 09:08:18;;;;;;;6.20;2.53;;;;;;;17.60;54.23;100216.22;5115302;28;20027;-77
2022/05/22 09:11:09;;;;;;;4.25;1.63;;;;;;;17.82;55.07;100203.41;5115160;28;20132;-76
2022/05/22 09:13:42;;;;;;;5.13;2.15;;;;;;;17.81;53.83;100206.38;5114066;28;20035;-77
2022/05/22 09:16:18;;;;;;;4.95;2.33;;;;;;;17.84;53.21;100208.59;5115552;28;20428;-76
2022/05/22 09:18:52;;;;;;;4.65;1.90;;;;;;;18.08;53.50;100192.75;5115283;28;20034;-76
2022/05/22 09:21:36;;;;;;;5.70;2.20;;;;;;;17.96;52.74;100192.91;5115055;28;20474;-77
2022/05/22 09:24:12;;;;;;;5.45;2.00;;;;;;;17.95;53.71;100192.06;5115338;28;20027;-76
2022/05/22 09:26:44;;;;;;;5.78;2.15;;;;;;;18.37;52.29;100183.16;5114985;28;20027;-77
2022/05/22 09:29:22;;;;;;;7.10;1.95;;;;;;;18.32;51.90;100178.47;5096575;28;20028;-78
2022/05/22 09:32:06;;;;;;;4.32;1.75;;;;;;;18.49;52.22;100182.94;5096349;28;20131;-78
2022/05/22 09:34:40;;;;;;;5.60;1.63;;;;;;;18.76;51.60;100180.97;5114648;28;20070;-77
2022/05/22 09:37:18;;;;;;;6.20;1.95;;;;;;;18.99;52.27;100174.25;5115114;28;20027;-78
2022/05/22 09:39:52;;;;;;;8.70;2.35;;;;;;;19.06;50.79;100169.38;5114590;28;20084;-78
2022/05/22 09:42:47;;;;;;;5.55;2.10;;;;;;;18.91;50.72;100169.31;5114295;28;20045;-77
2022/05/22 09:45:45;;;;;;;5.05;1.88;;;;;;;18.92;49.91;100166.31;5114331;28;20023;-77
2022/05/22 09:48:50;;;;;;;6.78;1.83;;;;;;;19.13;48.95;100169.97;5079431;28;20046;-77
2022/05/22 09:51:31;;;;;;;9.95;2.13;;;;;;;18.98;49.62;100168.00;5096137;28;20126;-78
2022/05/22 09:54:18;;;;;;;8.43;2.10;;;;;;;19.28;49.62;100169.19;5096465;28;20373;-77
2022/05/22 09:56:46;;;;;;;5.50;2.10;;;;;;;19.63;49.13;100168.50;5096855;28;20035;-77
2022/05/22 09:59:21;;;;;;;6.10;2.33;;;;;;;19.41;48.82;100172.22;5115089;28;20039;-77
2022/05/22 10:01:52;;;;;;;5.10;2.17;;;;;;;19.37;49.02;100170.28;5114837;28;20541;-77
2022/05/22 10:04:32;;;;;;;5.10;1.83;;;;;;;19.28;49.20;100166.47;5114362;28;20027;-75
2022/05/22 10:07:00;;;;;;;4.93;2.00;;;;;;;18.78;49.85;100164.34;5114347;28;20457;-78
2022/05/22 10:09:51;;;;;;;5.95;2.80;;;;;;;18.77;50.29;100166.25;5114262;28;20027;-76
2022/05/22 10:12:33;;;;;;;4.00;1.83;;;;;;;19.31;50.29;100171.38;5064704;28;20050;-78
2022/05/22 10:15:27;;;;;;;5.25;2.05;;;;;;;19.23;48.90;100167.25;5113670;28;20061;-75
2022/05/22 10:18:07;;;;;;;6.03;2.15;;;;;;;19.18;49.63;100155.47;5114397;28;20027;-76
2022/05/22 10:20:54;;;;;;;5.00;2.47;;;;;;;19.46;49.02;100160.50;5114037;28;20035;-76
2022/05/22 10:23:38;;;;;;;5.80;2.22;;;;;;;19.77;48.85;100158.66;5113668;28;20114;-75
2022/05/22 10:26:15;;;;;;;6.13;2.40;;;;;;;20.05;47.39;100168.28;5113522;28;20037;-78
2022/05/22 10:28:47;;;;;;;5.10;2.22;;;;;;;20.28;47.17;100164.13;5113990;28;20072;-77
2022/05/22 10:31:23;;;;;;;5.50;2.38;;;;;;;20.12;47.05;100155.13;5113975;28;20032;-76
2022/05/22 10:34:04;;;;;;;6.63;2.15;;;;;;;19.92;47.48;100158.66;5113587;28;20048;-76
2022/05/22 10:36:36;;;;;;;4.97;1.90;;;;;;;19.87;49.34;100160.59;5113336;28;20130;-76
2022/05/22 10:39:10;;;;;;;5.28;2.20;;;;;;;19.65;49.49;100150.72;5113453;28;20044;-77
2022/05/22 10:44:53;;;;;;;5.35;2.78;;;;;;;18.65;50.34;100154.69;5113787;28;20158;-76
2022/05/22 10:47:33;;;;;;;7.30;2.85;;;;;;;18.47;51.50;100149.66;5113651;28;20097;-76
2022/05/22 10:50:12;;;;;;;5.60;2.45;;;;;;;18.73;50.97;100141.38;5113714;28;20039;-76
2022/05/22 10:52:37;;;;;;;4.45;2.05;;;;;;;18.75;50.53;100151.22;5113600;28;20185;-76
2022/05/22 10:55:15;;;;;;;8.10;2.05;;;;;;;18.85;50.96;100149.34;5113565;28;20482;-75
2022/05/22 10:57:40;;;;;;;7.40;3.65;;;;;;;18.79;50.74;100136.78;5095445;28;20126;-75
2022/05/22 11:00:12;;;;;;;4.97;2.60;;;;;;;18.64;51.14;100129.31;5113918;28;20395;-76
2022/05/22 11:02:37;;;;;;;6.43;2.35;;;;;;;18.52;51.38;100130.59;5095608;28;20477;-77
2022/05/22 11:05:15;;;;;;;5.57;2.38;;;;;;;18.65;51.43;100125.50;5113761;28;20031;-77
2022/05/22 11:07:49;;;;;;;5.55;2.17;;;;;;;18.64;50.48;100123.84;5113884;28;20028;-77
2022/05/22 11:10:17;;;;;;;6.78;2.10;;;;;;;18.71;51.51;100118.16;5095780;28;20024;-76
2022/05/22 11:12:43;;;;;;;4.32;2.40;;;;;;;18.75;50.88;100113.81;5114222;28;20032;-76
2022/05/22 11:15:25;;;;;;;6.47;2.30;;;;;;;19.03;50.99;100105.19;5113313;28;20115;-75
2022/05/22 11:18:01;;;;;;;4.47;2.42;;;;;;;18.80;50.50;100111.13;5095317;28;20123;-77
2022/05/22 11:20:27;;;;;;;6.43;2.33;;;;;;;18.96;49.47;100106.53;5113566;28;20111;-77
2022/05/22 11:23:07;;;;;;;6.45;2.47;;;;;;;19.24;51.26;100111.53;5113848;28;20092;-77
2022/05/22 11:25:53;;;;;;;7.22;2.60;;;;;;;19.58;49.23;100103.69;5113996;28;20032;-77
2022/05/22 11:28:44;;;;;;;5.72;2.20;;;;;;;19.39;49.43;100099.81;5114217;28;20054;-77
2022/05/22 11:31:24;;;;;;;6.43;2.30;;;;;;;19.43;48.94;100081.78;5113191;28;20118;-76
2022/05/22 11:34:17;;;;;;;5.80;2.30;;;;;;;19.66;47.56;100081.31;5113306;28;20070;-77
2022/05/22 11:37:02;;;;;;;5.47;2.25;;;;;;;19.82;46.98;100073.91;5113520;28;20040;-76
2022/05/22 11:39:50;;;;;;;6.35;2.20;;;;;;;20.49;46.26;100069.16;5117170;28;20028;-77
2022/05/22 11:42:15;;;;;;;5.97;2.70;;;;;;;20.40;45.78;100064.28;5117362;28;20417;-77
2022/05/22 11:45:25;;;;;;;7.37;2.57;;;;;;;20.73;46.01;100057.31;5116745;28;20063;-77
2022/05/22 11:48:06;;;;;;;4.75;2.13;;;;;;;20.80;45.04;100059.72;5090445;28;20397;-77
2022/05/22 11:51:00;;;;;;;5.35;2.42;;;;;;;20.35;45.62;100056.06;5117008;28;20031;-77
2022/05/22 11:53:45;;;;;;;6.57;2.35;;;;;;;20.20;45.97;100055.28;5009789;28;20135;-77